sensor_id;sensor_type;location;lat;lon;timestamp;P1;durP1;ratioP1;P2;durP2;ratioP2
53503;SDS011;39387;50.998;22.340;2023-05-20T00:02:02;10.15;;;6.43;;
53503;SDS011;39387;50.998;22.340;2023-05-20T00:04:29;8.73;;;6.03;;
53503;SDS011;39387;50.998;22.340;2023-05-20T00:06:57;10.05;;;7.18;;
53503;SDS011;39387;50.998;22.340;2023-05-20T00:09:24;11.20;;;8.07;;
53503;SDS011;39387;50.998;22.340;2023-05-20T00:11:52;10.18;;;7.13;;
53503;SDS011;39387;50.998;22.340;2023-05-20T00:14:19;10.57;;;6.97;;
53503;SDS011;39387;50.998;22.340;2023-05-20T00:16:49;10.20;;;6.57;;
53503;SDS011;39387;50.998;22.340;2023-05-20T00:19:16;9.45;;;6.63;;
53503;SDS011;39387;50.998;22.340;2023-05-20T00:21:44;10.23;;;6.32;;
53503;SDS011;39387;50.998;22.340;2023-05-20T00:24:11;8.38;;;6.05;;
53503;SDS011;39387;50.998;22.340;2023-05-20T00:26:39;9.90;;;6.55;;
53503;SDS011;39387;50.998;22.340;2023-05-20T00:29:06;9.55;;;6.40;;
53503;SDS011;39387;50.998;22.340;2023-05-20T00:31:33;8.38;;;6.07;;
53503;SDS011;39387;50.998;22.340;2023-05-20T00:34:02;8.48;;;5.60;;
53503;SDS011;39387;50.998;22.340;2023-05-20T00:36:30;8.15;;;6.30;;
53503;SDS011;39387;50.998;22.340;2023-05-20T00:38:57;10.30;;;6.57;;
53503;SDS011;39387;50.998;22.340;2023-05-20T00:41:25;9.88;;;6.43;;
53503;SDS011;39387;50.998;22.340;2023-05-20T00:43:52;9.63;;;7.05;;
53503;SDS011;39387;50.998;22.340;2023-05-20T00:46:20;11.13;;;6.82;;
53503;SDS011;39387;50.998;22.340;2023-05-20T00:48:47;9.73;;;6.47;;
53503;SDS011;39387;50.998;22.340;2023-05-20T00:51:17;8.57;;;5.70;;
53503;SDS011;39387;50.998;22.340;2023-05-20T00:53:46;7.57;;;5.97;;
53503;SDS011;39387;50.998;22.340;2023-05-20T00:56:13;7.10;;;5.25;;
53503;SDS011;39387;50.998;22.340;2023-05-20T00:58:41;7.60;;;5.55;;
53503;SDS011;39387;50.998;22.340;2023-05-20T01:01:08;8.02;;;5.80;;
53503;SDS011;39387;50.998;22.340;2023-05-20T01:03:36;7.35;;;5.30;;
53503;SDS011;39387;50.998;22.340;2023-05-20T01:06:04;8.45;;;5.80;;
53503;SDS011;39387;50.998;22.340;2023-05-20T01:08:33;10.98;;;6.13;;
53503;SDS011;39387;50.998;22.340;2023-05-20T01:11:02;7.32;;;5.75;;
53503;SDS011;39387;50.998;22.340;2023-05-20T01:13:31;6.43;;;4.85;;
53503;SDS011;39387;50.998;22.340;2023-05-20T01:16:01;7.03;;;5.28;;
53503;SDS011;39387;50.998;22.340;2023-05-20T01:18:29;7.45;;;5.28;;
53503;SDS011;39387;50.998;22.340;2023-05-20T01:20:59;6.30;;;4.73;;
53503;SDS011;39387;50.998;22.340;2023-05-20T01:23:36;6.75;;;5.05;;
53503;SDS011;39387;50.998;22.340;2023-05-20T01:26:05;7.50;;;5.38;;
53503;SDS011;39387;50.998;22.340;2023-05-20T01:28:32;8.20;;;5.43;;
53503;SDS011;39387;50.998;22.340;2023-05-20T01:31:00;6.82;;;5.53;;
53503;SDS011;39387;50.998;22.340;2023-05-20T01:33:30;7.60;;;5.20;;
53503;SDS011;39387;50.998;22.340;2023-05-20T01:35:58;6.35;;;4.70;;
53503;SDS011;39387;50.998;22.340;2023-05-20T01:38:26;6.93;;;5.03;;
53503;SDS011;39387;50.998;22.340;2023-05-20T01:40:55;6.68;;;4.88;;
53503;SDS011;39387;50.998;22.340;2023-05-20T01:43:23;5.55;;;4.18;;
53503;SDS011;39387;50.998;22.340;2023-05-20T01:45:51;5.65;;;4.45;;
53503;SDS011;39387;50.998;22.340;2023-05-20T01:48:19;6.78;;;4.70;;
53503;SDS011;39387;50.998;22.340;2023-05-20T01:50:46;6.57;;;4.47;;
53503;SDS011;39387;50.998;22.340;2023-05-20T01:53:14;5.43;;;4.28;;
53503;SDS011;39387;50.998;22.340;2023-05-20T01:55:41;6.53;;;4.63;;
53503;SDS011;39387;50.998;22.340;2023-05-20T01:58:10;5.75;;;4.47;;
53503;SDS011;39387;50.998;22.340;2023-05-20T02:00:38;4.53;;;4.00;;
53503;SDS011;39387;50.998;22.340;2023-05-20T02:03:05;5.20;;;4.00;;
53503;SDS011;39387;50.998;22.340;2023-05-20T02:05:33;4.75;;;3.42;;
53503;SDS011;39387;50.998;22.340;2023-05-20T02:08:00;3.70;;;3.08;;
53503;SDS011;39387;50.998;22.340;2023-05-20T02:10:28;4.72;;;3.95;;
53503;SDS011;39387;50.998;22.340;2023-05-20T02:12:55;4.70;;;3.58;;
53503;SDS011;39387;50.998;22.340;2023-05-20T02:15:24;4.72;;;3.63;;
53503;SDS011;39387;50.998;22.340;2023-05-20T02:17:52;4.80;;;3.53;;
53503;SDS011;39387;50.998;22.340;2023-05-20T02:20:19;4.47;;;3.50;;
53503;SDS011;39387;50.998;22.340;2023-05-20T02:22:46;5.00;;;3.65;;
53503;SDS011;39387;50.998;22.340;2023-05-20T02:25:14;4.68;;;3.90;;
53503;SDS011;39387;50.998;22.340;2023-05-20T02:27:41;5.68;;;3.92;;
53503;SDS011;39387;50.998;22.340;2023-05-20T02:30:09;5.20;;;3.72;;
53503;SDS011;39387;50.998;22.340;2023-05-20T02:32:38;4.57;;;3.70;;
53503;SDS011;39387;50.998;22.340;2023-05-20T02:35:06;4.95;;;3.53;;
53503;SDS011;39387;50.998;22.340;2023-05-20T02:37:34;4.57;;;3.50;;
53503;SDS011;39387;50.998;22.340;2023-05-20T02:40:04;5.18;;;3.78;;
53503;SDS011;39387;50.998;22.340;2023-05-20T02:42:33;7.53;;;5.17;;
53503;SDS011;39387;50.998;22.340;2023-05-20T02:45:01;5.72;;;4.15;;
53503;SDS011;39387;50.998;22.340;2023-05-20T02:47:28;7.13;;;4.93;;
53503;SDS011;39387;50.998;22.340;2023-05-20T02:49:58;7.10;;;4.88;;
53503;SDS011;39387;50.998;22.340;2023-05-20T02:52:25;9.10;;;6.82;;
53503;SDS011;39387;50.998;22.340;2023-05-20T02:54:53;11.30;;;6.63;;
53503;SDS011;39387;50.998;22.340;2023-05-20T02:57:21;10.82;;;6.45;;
53503;SDS011;39387;50.998;22.340;2023-05-20T02:59:48;9.13;;;6.70;;
53503;SDS011;39387;50.998;22.340;2023-05-20T03:02:16;8.80;;;6.43;;
53503;SDS011;39387;50.998;22.340;2023-05-20T03:04:44;9.98;;;6.72;;
53503;SDS011;39387;50.998;22.340;2023-05-20T03:07:13;10.77;;;7.68;;
53503;SDS011;39387;50.998;22.340;2023-05-20T03:09:44;11.23;;;8.10;;
53503;SDS011;39387;50.998;22.340;2023-05-20T03:12:11;13.38;;;8.43;;
53503;SDS011;39387;50.998;22.340;2023-05-20T03:14:39;11.07;;;7.75;;
53503;SDS011;39387;50.998;22.340;2023-05-20T03:17:07;10.95;;;7.20;;
53503;SDS011;39387;50.998;22.340;2023-05-20T03:19:35;10.23;;;7.43;;
53503;SDS011;39387;50.998;22.340;2023-05-20T03:22:02;9.32;;;6.63;;
53503;SDS011;39387;50.998;22.340;2023-05-20T03:24:32;10.23;;;6.90;;
53503;SDS011;39387;50.998;22.340;2023-05-20T03:27:00;9.85;;;7.20;;
53503;SDS011;39387;50.998;22.340;2023-05-20T03:29:28;8.55;;;6.65;;
53503;SDS011;39387;50.998;22.340;2023-05-20T03:31:55;8.80;;;6.55;;
53503;SDS011;39387;50.998;22.340;2023-05-20T03:34:23;9.40;;;7.05;;
53503;SDS011;39387;50.998;22.340;2023-05-20T03:36:52;9.88;;;6.90;;
53503;SDS011;39387;50.998;22.340;2023-05-20T03:39:20;8.13;;;6.10;;
53503;SDS011;39387;50.998;22.340;2023-05-20T03:41:48;8.07;;;6.15;;
53503;SDS011;39387;50.998;22.340;2023-05-20T03:44:16;9.20;;;6.88;;
53503;SDS011;39387;50.998;22.340;2023-05-20T03:46:44;8.77;;;6.82;;
53503;SDS011;39387;50.998;22.340;2023-05-20T03:49:11;7.90;;;6.13;;
53503;SDS011;39387;50.998;22.340;2023-05-20T03:51:39;8.30;;;6.68;;
53503;SDS011;39387;50.998;22.340;2023-05-20T03:54:06;9.05;;;6.90;;
53503;SDS011;39387;50.998;22.340;2023-05-20T03:56:33;8.45;;;6.55;;
53503;SDS011;39387;50.998;22.340;2023-05-20T03:59:02;7.10;;;5.90;;
53503;SDS011;39387;50.998;22.340;2023-05-20T04:01:30;7.82;;;6.50;;
53503;SDS011;39387;50.998;22.340;2023-05-20T04:03:58;8.05;;;6.53;;
53503;SDS011;39387;50.998;22.340;2023-05-20T04:06:26;7.72;;;6.20;;
53503;SDS011;39387;50.998;22.340;2023-05-20T04:08:53;7.82;;;5.45;;
53503;SDS011;39387;50.998;22.340;2023-05-20T04:11:20;6.90;;;5.40;;
53503;SDS011;39387;50.998;22.340;2023-05-20T04:13:48;8.60;;;6.50;;
53503;SDS011;39387;50.998;22.340;2023-05-20T04:16:17;7.60;;;5.90;;
53503;SDS011;39387;50.998;22.340;2023-05-20T04:18:45;8.90;;;6.75;;
53503;SDS011;39387;50.998;22.340;2023-05-20T04:21:13;9.68;;;7.68;;
53503;SDS011;39387;50.998;22.340;2023-05-20T04:23:41;9.57;;;7.60;;
53503;SDS011;39387;50.998;22.340;2023-05-20T04:26:08;10.50;;;7.75;;
53503;SDS011;39387;50.998;22.340;2023-05-20T04:28:36;8.65;;;6.75;;
53503;SDS011;39387;50.998;22.340;2023-05-20T04:31:03;8.75;;;6.65;;
53503;SDS011;39387;50.998;22.340;2023-05-20T04:33:32;8.10;;;6.18;;
53503;SDS011;39387;50.998;22.340;2023-05-20T04:36:02;7.93;;;5.85;;
53503;SDS011;39387;50.998;22.340;2023-05-20T04:38:31;7.35;;;5.60;;
53503;SDS011;39387;50.998;22.340;2023-05-20T04:40:58;9.45;;;6.25;;
53503;SDS011;39387;50.998;22.340;2023-05-20T04:43:26;8.73;;;6.18;;
53503;SDS011;39387;50.998;22.340;2023-05-20T04:45:55;8.07;;;5.78;;
53503;SDS011;39387;50.998;22.340;2023-05-20T04:48:23;7.45;;;5.78;;
53503;SDS011;39387;50.998;22.340;2023-05-20T04:50:52;8.25;;;6.20;;
53503;SDS011;39387;50.998;22.340;2023-05-20T04:53:20;7.75;;;5.75;;
53503;SDS011;39387;50.998;22.340;2023-05-20T04:55:47;7.60;;;5.70;;
53503;SDS011;39387;50.998;22.340;2023-05-20T04:58:18;7.70;;;5.95;;
53503;SDS011;39387;50.998;22.340;2023-05-20T05:00:49;8.25;;;5.55;;
53503;SDS011;39387;50.998;22.340;2023-05-20T05:03:17;10.15;;;6.93;;
53503;SDS011;39387;50.998;22.340;2023-05-20T05:05:44;9.75;;;6.70;;
53503;SDS011;39387;50.998;22.340;2023-05-20T05:08:14;7.85;;;6.43;;
53503;SDS011;39387;50.998;22.340;2023-05-20T05:10:41;8.02;;;6.20;;
53503;SDS011;39387;50.998;22.340;2023-05-20T05:13:09;6.68;;;5.25;;
53503;SDS011;39387;50.998;22.340;2023-05-20T05:15:36;8.05;;;6.25;;
53503;SDS011;39387;50.998;22.340;2023-05-20T05:18:04;8.75;;;6.22;;
53503;SDS011;39387;50.998;22.340;2023-05-20T05:20:31;9.32;;;6.30;;
53503;SDS011;39387;50.998;22.340;2023-05-20T05:22:59;8.32;;;6.07;;
53503;SDS011;39387;50.998;22.340;2023-05-20T05:25:28;9.02;;;6.30;;
53503;SDS011;39387;50.998;22.340;2023-05-20T05:27:55;8.23;;;6.20;;
53503;SDS011;39387;50.998;22.340;2023-05-20T05:30:23;7.47;;;5.88;;
53503;SDS011;39387;50.998;22.340;2023-05-20T05:32:51;8.40;;;5.93;;
53503;SDS011;39387;50.998;22.340;2023-05-20T05:35:18;7.55;;;5.68;;
53503;SDS011;39387;50.998;22.340;2023-05-20T05:37:46;8.40;;;6.28;;
53503;SDS011;39387;50.998;22.340;2023-05-20T05:40:13;9.23;;;5.65;;
53503;SDS011;39387;50.998;22.340;2023-05-20T05:42:42;8.05;;;5.80;;
53503;SDS011;39387;50.998;22.340;2023-05-20T05:45:10;7.43;;;5.18;;
53503;SDS011;39387;50.998;22.340;2023-05-20T05:47:38;7.03;;;5.50;;
53503;SDS011;39387;50.998;22.340;2023-05-20T05:50:05;9.93;;;6.90;;
53503;SDS011;39387;50.998;22.340;2023-05-20T05:52:33;8.73;;;6.53;;
53503;SDS011;39387;50.998;22.340;2023-05-20T05:55:00;8.20;;;6.10;;
53503;SDS011;39387;50.998;22.340;2023-05-20T05:57:28;8.25;;;5.95;;
53503;SDS011;39387;50.998;22.340;2023-05-20T05:59:57;8.88;;;6.53;;
53503;SDS011;39387;50.998;22.340;2023-05-20T06:02:25;8.00;;;5.87;;
53503;SDS011;39387;50.998;22.340;2023-05-20T06:04:53;9.32;;;6.80;;
53503;SDS011;39387;50.998;22.340;2023-05-20T06:07:22;9.73;;;6.93;;
53503;SDS011;39387;50.998;22.340;2023-05-20T06:09:49;9.00;;;6.57;;
53503;SDS011;39387;50.998;22.340;2023-05-20T06:12:17;8.48;;;6.15;;
53503;SDS011;39387;50.998;22.340;2023-05-20T06:14:44;8.88;;;6.50;;
53503;SDS011;39387;50.998;22.340;2023-05-20T06:17:14;9.65;;;6.57;;
53503;SDS011;39387;50.998;22.340;2023-05-20T06:19:41;7.95;;;6.13;;
53503;SDS011;39387;50.998;22.340;2023-05-20T06:22:09;8.15;;;6.38;;
53503;SDS011;39387;50.998;22.340;2023-05-20T06:24:36;7.90;;;6.05;;
53503;SDS011;39387;50.998;22.340;2023-05-20T06:27:04;9.60;;;6.88;;
53503;SDS011;39387;50.998;22.340;2023-05-20T06:29:32;7.20;;;5.88;;
53503;SDS011;39387;50.998;22.340;2023-05-20T06:32:00;7.95;;;5.82;;
53503;SDS011;39387;50.998;22.340;2023-05-20T06:34:28;9.45;;;6.47;;
53503;SDS011;39387;50.998;22.340;2023-05-20T06:36:56;9.20;;;6.60;;
53503;SDS011;39387;50.998;22.340;2023-05-20T06:39:23;9.63;;;6.45;;
53503;SDS011;39387;50.998;22.340;2023-05-20T06:41:51;8.20;;;6.40;;
53503;SDS011;39387;50.998;22.340;2023-05-20T06:44:18;7.22;;;6.03;;
53503;SDS011;39387;50.998;22.340;2023-05-20T06:46:46;8.93;;;6.57;;
53503;SDS011;39387;50.998;22.340;2023-05-20T06:49:13;7.93;;;6.20;;
53503;SDS011;39387;50.998;22.340;2023-05-20T06:51:42;7.72;;;6.30;;
53503;SDS011;39387;50.998;22.340;2023-05-20T06:54:10;6.78;;;5.78;;
53503;SDS011;39387;50.998;22.340;2023-05-20T06:56:37;8.90;;;6.53;;
53503;SDS011;39387;50.998;22.340;2023-05-20T06:59:05;8.02;;;6.13;;
53503;SDS011;39387;50.998;22.340;2023-05-20T07:01:32;9.43;;;7.40;;
53503;SDS011;39387;50.998;22.340;2023-05-20T07:04:00;8.32;;;6.50;;
53503;SDS011;39387;50.998;22.340;2023-05-20T07:06:27;9.15;;;6.95;;
53503;SDS011;39387;50.998;22.340;2023-05-20T07:08:58;8.05;;;6.20;;
53503;SDS011;39387;50.998;22.340;2023-05-20T07:11:26;7.95;;;6.15;;
53503;SDS011;39387;50.998;22.340;2023-05-20T07:13:53;7.20;;;6.15;;
53503;SDS011;39387;50.998;22.340;2023-05-20T07:16:21;8.10;;;6.55;;
53503;SDS011;39387;50.998;22.340;2023-05-20T07:18:49;6.70;;;5.53;;
53503;SDS011;39387;50.998;22.340;2023-05-20T07:21:16;7.88;;;5.75;;
53503;SDS011;39387;50.998;22.340;2023-05-20T07:23:44;7.13;;;6.00;;
53503;SDS011;39387;50.998;22.340;2023-05-20T07:26:13;8.25;;;6.00;;
53503;SDS011;39387;50.998;22.340;2023-05-20T07:28:41;6.88;;;6.15;;
53503;SDS011;39387;50.998;22.340;2023-05-20T07:31:08;9.13;;;6.93;;
53503;SDS011;39387;50.998;22.340;2023-05-20T07:33:36;9.38;;;6.80;;
53503;SDS011;39387;50.998;22.340;2023-05-20T07:36:04;7.85;;;6.47;;
53503;SDS011;39387;50.998;22.340;2023-05-20T07:38:31;7.63;;;6.50;;
53503;SDS011;39387;50.998;22.340;2023-05-20T07:40:59;8.93;;;7.05;;
53503;SDS011;39387;50.998;22.340;2023-05-20T07:43:28;8.68;;;7.00;;
53503;SDS011;39387;50.998;22.340;2023-05-20T07:45:56;8.38;;;6.45;;
53503;SDS011;39387;50.998;22.340;2023-05-20T07:48:23;8.25;;;7.13;;
53503;SDS011;39387;50.998;22.340;2023-05-20T07:50:51;7.85;;;7.05;;
53503;SDS011;39387;50.998;22.340;2023-05-20T07:53:18;7.82;;;6.68;;
53503;SDS011;39387;50.998;22.340;2023-05-20T07:55:46;7.70;;;6.72;;
53503;SDS011;39387;50.998;22.340;2023-05-20T07:58:13;7.00;;;6.30;;
53503;SDS011;39387;50.998;22.340;2023-05-20T08:00:42;7.32;;;6.63;;
53503;SDS011;39387;50.998;22.340;2023-05-20T08:03:10;7.75;;;6.55;;
53503;SDS011;39387;50.998;22.340;2023-05-20T08:05:39;7.05;;;6.35;;
53503;SDS011;39387;50.998;22.340;2023-05-20T08:08:07;7.53;;;6.82;;
53503;SDS011;39387;50.998;22.340;2023-05-20T08:10:35;7.10;;;6.38;;
53503;SDS011;39387;50.998;22.340;2023-05-20T08:13:03;8.43;;;7.55;;
53503;SDS011;39387;50.998;22.340;2023-05-20T08:15:30;8.18;;;7.38;;
53503;SDS011;39387;50.998;22.340;2023-05-20T08:17:59;8.90;;;8.00;;
53503;SDS011;39387;50.998;22.340;2023-05-20T08:20:27;8.27;;;7.47;;
53503;SDS011;39387;50.998;22.340;2023-05-20T08:22:55;8.07;;;7.32;;
53503;SDS011;39387;50.998;22.340;2023-05-20T08:25:23;7.97;;;7.18;;
53503;SDS011;39387;50.998;22.340;2023-05-20T08:27:50;7.45;;;6.78;;
53503;SDS011;39387;50.998;22.340;2023-05-20T08:30:18;8.43;;;7.53;;
53503;SDS011;39387;50.998;22.340;2023-05-20T08:32:45;11.75;;;8.93;;
53503;SDS011;39387;50.998;22.340;2023-05-20T08:35:15;9.40;;;8.50;;
53503;SDS011;39387;50.998;22.340;2023-05-20T08:37:42;8.43;;;7.63;;
53503;SDS011;39387;50.998;22.340;2023-05-20T08:40:10;8.85;;;7.95;;
53503;SDS011;39387;50.998;22.340;2023-05-20T08:42:41;8.82;;;7.93;;
53503;SDS011;39387;50.998;22.340;2023-05-20T08:45:10;9.45;;;8.55;;
53503;SDS011;39387;50.998;22.340;2023-05-20T08:47:39;9.55;;;8.65;;
53503;SDS011;39387;50.998;22.340;2023-05-20T08:50:09;9.40;;;8.38;;
53503;SDS011;39387;50.998;22.340;2023-05-20T08:52:41;8.05;;;7.28;;
53503;SDS011;39387;50.998;22.340;2023-05-20T08:55:12;7.97;;;7.28;;
53503;SDS011;39387;50.998;22.340;2023-05-20T08:57:41;8.45;;;7.65;;
53503;SDS011;39387;50.998;22.340;2023-05-20T09:00:11;7.80;;;7.00;;
53503;SDS011;39387;50.998;22.340;2023-05-20T09:02:41;8.07;;;7.38;;
53503;SDS011;39387;50.998;22.340;2023-05-20T09:05:09;7.90;;;7.13;;
53503;SDS011;39387;50.998;22.340;2023-05-20T09:07:38;9.20;;;8.30;;
53503;SDS011;39387;50.998;22.340;2023-05-20T09:12:35;9.13;;;8.23;;
53503;SDS011;39387;50.998;22.340;2023-05-20T09:15:03;8.57;;;7.65;;
53503;SDS011;39387;50.998;22.340;2023-05-20T09:17:33;8.77;;;7.88;;
53503;SDS011;39387;50.998;22.340;2023-05-20T09:20:04;8.15;;;7.35;;
53503;SDS011;39387;50.998;22.340;2023-05-20T09:22:34;8.38;;;7.55;;
53503;SDS011;39387;50.998;22.340;2023-05-20T09:25:04;8.95;;;8.15;;
53503;SDS011;39387;50.998;22.340;2023-05-20T09:27:32;8.70;;;7.80;;
53503;SDS011;39387;50.998;22.340;2023-05-20T09:30:00;8.68;;;7.85;;
53503;SDS011;39387;50.998;22.340;2023-05-20T09:32:27;9.30;;;8.40;;
53503;SDS011;39387;50.998;22.340;2023-05-20T09:34:55;9.45;;;8.40;;
53503;SDS011;39387;50.998;22.340;2023-05-20T09:37:23;9.38;;;7.97;;
53503;SDS011;39387;50.998;22.340;2023-05-20T09:39:54;9.18;;;8.27;;
53503;SDS011;39387;50.998;22.340;2023-05-20T09:42:26;9.93;;;8.85;;
53503;SDS011;39387;50.998;22.340;2023-05-20T09:44:56;10.57;;;8.68;;
53503;SDS011;39387;50.998;22.340;2023-05-20T09:47:24;8.98;;;8.13;;
53503;SDS011;39387;50.998;22.340;2023-05-20T09:49:53;9.55;;;8.57;;
53503;SDS011;39387;50.998;22.340;2023-05-20T09:52:21;9.50;;;8.63;;
53503;SDS011;39387;50.998;22.340;2023-05-20T09:54:48;9.85;;;8.80;;
53503;SDS011;39387;50.998;22.340;2023-05-20T09:57:17;9.95;;;8.98;;
53503;SDS011;39387;50.998;22.340;2023-05-20T09:59:46;9.43;;;8.52;;
53503;SDS011;39387;50.998;22.340;2023-05-20T10:02:13;9.32;;;7.65;;
53503;SDS011;39387;50.998;22.340;2023-05-20T10:04:42;8.90;;;8.00;;
53503;SDS011;39387;50.998;22.340;2023-05-20T10:07:17;9.75;;;8.38;;
53503;SDS011;39387;50.998;22.340;2023-05-20T10:09:55;9.90;;;8.55;;
53503;SDS011;39387;50.998;22.340;2023-05-20T10:12:32;9.43;;;8.52;;
53503;SDS011;39387;50.998;22.340;2023-05-20T10:15:06;8.85;;;8.02;;
53503;SDS011;39387;50.998;22.340;2023-05-20T10:17:45;8.18;;;7.30;;
53503;SDS011;39387;50.998;22.340;2023-05-20T10:20:18;9.45;;;8.52;;
53503;SDS011;39387;50.998;22.340;2023-05-20T10:22:53;9.35;;;8.45;;
53503;SDS011;39387;50.998;22.340;2023-05-20T10:25:25;10.10;;;9.13;;
53503;SDS011;39387;50.998;22.340;2023-05-20T10:28:03;10.88;;;9.77;;
53503;SDS011;39387;50.998;22.340;2023-05-20T10:30:34;13.73;;;10.50;;
53503;SDS011;39387;50.998;22.340;2023-05-20T10:33:02;21.40;;;14.90;;
53503;SDS011;39387;50.998;22.340;2023-05-20T10:38:06;8.68;;;7.78;;
53503;SDS011;39387;50.998;22.340;2023-05-20T10:40:35;9.02;;;7.50;;
53503;SDS011;39387;50.998;22.340;2023-05-20T10:43:08;8.00;;;7.20;;
53503;SDS011;39387;50.998;22.340;2023-05-20T10:45:47;7.93;;;7.00;;
53503;SDS011;39387;50.998;22.340;2023-05-20T10:48:25;7.53;;;6.75;;
53503;SDS011;39387;50.998;22.340;2023-05-20T10:50:55;7.65;;;6.85;;
53503;SDS011;39387;50.998;22.340;2023-05-20T10:53:25;7.53;;;6.80;;
53503;SDS011;39387;50.998;22.340;2023-05-20T10:55:54;7.60;;;6.90;;
53503;SDS011;39387;50.998;22.340;2023-05-20T10:58:21;7.20;;;6.50;;
53503;SDS011;39387;50.998;22.340;2023-05-20T11:00:51;6.25;;;5.65;;
53503;SDS011;39387;50.998;22.340;2023-05-20T11:03:20;6.97;;;6.32;;
53503;SDS011;39387;50.998;22.340;2023-05-20T11:05:48;7.00;;;6.40;;
53503;SDS011;39387;50.998;22.340;2023-05-20T11:08:16;7.75;;;6.90;;
53503;SDS011;39387;50.998;22.340;2023-05-20T11:10:44;7.35;;;6.65;;
53503;SDS011;39387;50.998;22.340;2023-05-20T11:13:11;7.47;;;6.78;;
53503;SDS011;39387;50.998;22.340;2023-05-20T11:15:40;6.68;;;6.13;;
53503;SDS011;39387;50.998;22.340;2023-05-20T11:18:09;6.47;;;5.88;;
53503;SDS011;39387;50.998;22.340;2023-05-20T11:20:40;7.13;;;6.45;;
53503;SDS011;39387;50.998;22.340;2023-05-20T11:23:10;6.65;;;6.05;;
53503;SDS011;39387;50.998;22.340;2023-05-20T11:25:40;7.28;;;6.60;;
53503;SDS011;39387;50.998;22.340;2023-05-20T11:28:08;7.43;;;6.70;;
53503;SDS011;39387;50.998;22.340;2023-05-20T11:30:38;6.88;;;6.28;;
53503;SDS011;39387;50.998;22.340;2023-05-20T11:33:05;6.75;;;6.15;;
53503;SDS011;39387;50.998;22.340;2023-05-20T11:35:34;6.32;;;5.72;;
53503;SDS011;39387;50.998;22.340;2023-05-20T11:38:02;7.13;;;6.43;;
53503;SDS011;39387;50.998;22.340;2023-05-20T11:40:35;6.82;;;6.22;;
53503;SDS011;39387;50.998;22.340;2023-05-20T11:43:02;7.13;;;6.13;;
53503;SDS011;39387;50.998;22.340;2023-05-20T11:45:37;7.22;;;5.90;;
53503;SDS011;39387;50.998;22.340;2023-05-20T11:48:05;6.43;;;5.82;;
53503;SDS011;39387;50.998;22.340;2023-05-20T11:50:35;6.38;;;5.88;;
53503;SDS011;39387;50.998;22.340;2023-05-20T11:53:05;6.75;;;6.13;;
53503;SDS011;39387;50.998;22.340;2023-05-20T11:55:33;6.15;;;5.65;;
53503;SDS011;39387;50.998;22.340;2023-05-20T11:58:01;6.75;;;6.10;;
53503;SDS011;39387;50.998;22.340;2023-05-20T12:00:29;6.82;;;6.20;;
53503;SDS011;39387;50.998;22.340;2023-05-20T12:02:57;7.20;;;6.50;;
53503;SDS011;39387;50.998;22.340;2023-05-20T12:05:24;7.57;;;6.45;;
53503;SDS011;39387;50.998;22.340;2023-05-20T12:07:54;7.15;;;6.53;;
53503;SDS011;39387;50.998;22.340;2023-05-20T12:10:21;7.05;;;6.35;;
53503;SDS011;39387;50.998;22.340;2023-05-20T12:12:49;6.85;;;6.25;;
53503;SDS011;39387;50.998;22.340;2023-05-20T12:15:16;7.07;;;6.47;;
53503;SDS011;39387;50.998;22.340;2023-05-20T12:17:44;7.18;;;6.45;;
53503;SDS011;39387;50.998;22.340;2023-05-20T12:20:14;7.53;;;6.82;;
53503;SDS011;39387;50.998;22.340;2023-05-20T12:22:42;7.22;;;6.53;;
53503;SDS011;39387;50.998;22.340;2023-05-20T12:25:12;6.78;;;6.18;;
53503;SDS011;39387;50.998;22.340;2023-05-20T12:30:09;6.63;;;6.00;;
53503;SDS011;39387;50.998;22.340;2023-05-20T12:32:37;6.47;;;5.80;;
53503;SDS011;39387;50.998;22.340;2023-05-20T12:35:05;7.32;;;6.28;;
53503;SDS011;39387;50.998;22.340;2023-05-20T12:37:32;7.75;;;6.95;;
53503;SDS011;39387;50.998;22.340;2023-05-20T12:40:01;7.20;;;6.40;;
53503;SDS011;39387;50.998;22.340;2023-05-20T12:42:34;7.63;;;6.85;;
53503;SDS011;39387;50.998;22.340;2023-05-20T12:45:02;7.43;;;6.75;;
53503;SDS011;39387;50.998;22.340;2023-05-20T12:47:30;6.75;;;6.15;;
53503;SDS011;39387;50.998;22.340;2023-05-20T12:49:58;7.40;;;6.70;;
53503;SDS011;39387;50.998;22.340;2023-05-20T12:52:26;7.28;;;6.57;;
53503;SDS011;39387;50.998;22.340;2023-05-20T12:54:54;7.30;;;6.60;;
53503;SDS011;39387;50.998;22.340;2023-05-20T12:57:22;6.82;;;6.22;;
53503;SDS011;39387;50.998;22.340;2023-05-20T12:59:51;5.93;;;5.43;;
53503;SDS011;39387;50.998;22.340;2023-05-20T13:02:19;7.03;;;6.43;;
53503;SDS011;39387;50.998;22.340;2023-05-20T13:04:47;7.30;;;6.63;;
53503;SDS011;39387;50.998;22.340;2023-05-20T13:07:14;7.57;;;6.93;;
53503;SDS011;39387;50.998;22.340;2023-05-20T13:09:43;7.18;;;6.47;;
53503;SDS011;39387;50.998;22.340;2023-05-20T13:12:10;7.35;;;6.75;;
53503;SDS011;39387;50.998;22.340;2023-05-20T13:14:38;6.95;;;6.32;;
53503;SDS011;39387;50.998;22.340;2023-05-20T13:17:07;8.25;;;7.40;;
53503;SDS011;39387;50.998;22.340;2023-05-20T13:19:35;6.93;;;6.28;;
53503;SDS011;39387;50.998;22.340;2023-05-20T13:22:02;7.15;;;6.45;;
53503;SDS011;39387;50.998;22.340;2023-05-20T13:24:31;6.97;;;6.35;;
53503;SDS011;39387;50.998;22.340;2023-05-20T13:26:59;6.85;;;6.15;;
53503;SDS011;39387;50.998;22.340;2023-05-20T13:29:27;7.05;;;6.45;;
53503;SDS011;39387;50.998;22.340;2023-05-20T13:31:55;7.20;;;6.50;;
53503;SDS011;39387;50.998;22.340;2023-05-20T13:34:24;7.70;;;7.00;;
53503;SDS011;39387;50.998;22.340;2023-05-20T13:36:51;7.65;;;6.95;;
53503;SDS011;39387;50.998;22.340;2023-05-20T13:39:19;7.68;;;6.70;;
53503;SDS011;39387;50.998;22.340;2023-05-20T13:41:47;7.78;;;6.97;;
53503;SDS011;39387;50.998;22.340;2023-05-20T13:44:14;7.60;;;6.40;;
53503;SDS011;39387;50.998;22.340;2023-05-20T13:46:42;7.35;;;6.22;;
53503;SDS011;39387;50.998;22.340;2023-05-20T13:49:09;6.85;;;6.28;;
53503;SDS011;39387;50.998;22.340;2023-05-20T13:51:38;8.50;;;6.63;;
53503;SDS011;39387;50.998;22.340;2023-05-20T13:54:06;7.47;;;6.85;;
53503;SDS011;39387;50.998;22.340;2023-05-20T13:56:33;6.57;;;5.97;;
53503;SDS011;39387;50.998;22.340;2023-05-20T13:59:04;6.28;;;5.78;;
53503;SDS011;39387;50.998;22.340;2023-05-20T14:01:31;7.30;;;6.60;;
53503;SDS011;39387;50.998;22.340;2023-05-20T14:03:59;6.65;;;6.05;;
53503;SDS011;39387;50.998;22.340;2023-05-20T14:06:27;7.38;;;6.68;;
53503;SDS011;39387;50.998;22.340;2023-05-20T14:08:58;6.53;;;5.63;;
53503;SDS011;39387;50.998;22.340;2023-05-20T14:11:25;6.10;;;5.50;;
53503;SDS011;39387;50.998;22.340;2023-05-20T14:13:53;5.40;;;4.97;;
53503;SDS011;39387;50.998;22.340;2023-05-20T14:16:20;5.43;;;4.93;;
53503;SDS011;39387;50.998;22.340;2023-05-20T14:18:48;5.90;;;5.32;;
53503;SDS011;39387;50.998;22.340;2023-05-20T14:21:15;4.90;;;4.50;;
53503;SDS011;39387;50.998;22.340;2023-05-20T14:23:44;5.00;;;4.60;;
53503;SDS011;39387;50.998;22.340;2023-05-20T14:26:12;4.55;;;4.15;;
53503;SDS011;39387;50.998;22.340;2023-05-20T14:28:40;4.25;;;3.90;;
53503;SDS011;39387;50.998;22.340;2023-05-20T14:31:07;4.97;;;4.47;;
53503;SDS011;39387;50.998;22.340;2023-05-20T14:33:35;5.90;;;5.30;;
53503;SDS011;39387;50.998;22.340;2023-05-20T14:36:03;5.50;;;5.00;;
53503;SDS011;39387;50.998;22.340;2023-05-20T14:38:31;5.45;;;4.95;;
53503;SDS011;39387;50.998;22.340;2023-05-20T14:40:58;5.30;;;4.78;;
53503;SDS011;39387;50.998;22.340;2023-05-20T14:43:27;5.07;;;4.57;;
53503;SDS011;39387;50.998;22.340;2023-05-20T14:45:56;4.82;;;4.40;;
53503;SDS011;39387;50.998;22.340;2023-05-20T14:48:24;5.10;;;4.60;;